x

Virginia Beach 64 Nm East Of Virginia Beach, Va (44014) Wave Buoy

11:50pm - Thu 23rd Feb 2017 All times are EST. -5 hours from GMT.

  • Sig Wave height 3.9ft
  • Swell Direction
  • Peak Period 12s
  • Average Period 7s
  • Wind
    7mph
  • Sea Temp 54°f
  • 空気 Temp 58°f
  • Sea Pressure 1014.5mb
  • Virginia Beach 64 Nm East Of Virginia Beach, Va
  • Virginia Beach 64 Nm East Of Virginia Beach, Va

More Historic Weather Station data

Upgrade to MSW Pro to gain access to the past 30 days of data for over 8000 Wavebouys and Weather Stations around the globe.

Join Pro

Comparision Forecast

View Surf forecast
   
Thu 02/23 11:50pm 4ft 12s 7s 7
mph
1014.5mb 54f 58f
10:50pm 3.5ft 11s 7s 7
mph
1014.6mb 54f 58f
9:50pm 3.5ft 11s 7s 7
mph
1014.4mb 54f 58f
7:50pm 3.5ft 10s 7s 7 9 mph 1014.1mb 55f 58f
6:50pm 3.5ft 10s 7s 7 9 mph 1013.7mb 54f 58f
5:50pm 3.5ft 11s 6s 7
mph
1013.4mb 55f 59f
4:50pm 3.5ft 11s 7s 7
mph
1012.9mb 55f 59f
3:50pm 3ft 11s 6s 4 7 mph 1013.1mb 55f 58f
2:50pm 3.5ft 11s 6s 7
mph
1013.5mb 55f 59f
1:50pm 3.5ft 12s 6s 4 7 mph 1013.9mb 55f 60f
12:50pm 3.5ft 9s 6s 2 4 mph 1014.6mb 55f 60f
11:50am 3.5ft 9s 6s  -  2 mph 1015.2mb 54f 58f
10:50am 3ft 10s 6s 7 9 mph 1015.6mb 54f 57f
9:50am 3ft 10s 6s 2
mph
1015.7mb 53f 58f
8:50am 3.5ft 9s 6s 4
mph
1015.3mb 54f 56f
7:50am 3ft 10s 7s 4 11 mph 1015mb 54f 58f
6:50am 3ft 9s 7s 2
mph
1014.5mb 54f 58f
5:50am 3ft 10s 7s 4
mph
1014mb 54f 58f
Wed 02/22 11:50pm 3.5ft 11s 7s 7 9 mph 1014mb 53f 58f
10:50pm 3.5ft 8s 7s 7
mph
1014.6mb 53f 58f
9:50pm 3.5ft 9s 7s 7
mph
1015mb 54f 58f
8:50pm 3.5ft 11s 7s 7
mph
1015.1mb 54f 58f
7:50pm 3.5ft 8s 7s 7
mph
1014.9mb 55f 58f
6:50pm 3ft 11s 7s 7
mph
1014.9mb 55f 58f
5:50pm 3.5ft 9s 7s 7
mph
1014.9mb 55f 58f
4:50pm 3.5ft 9s 7s 4
mph
1014.9mb 55f 59f
3:50pm 3.5ft 9s 7s 4 7 mph 1015.1mb 56f 58f
2:50pm 3.5ft 10s 7s 4 7 mph 1015mb 56f 59f
1:50pm 4ft 10s 7s 4 7 mph 1015.5mb 56f 59f
12:50pm 4ft 9s 7s 4 7 mph 1016.1mb 55f 59f
11:50am 3.5ft 9s 7s  -  2 mph 1017.2mb 55f 60f
10:50am 4ft 10s 7s 4
mph
1017.6mb 54f 57f
9:50am 4.5ft 9s 7s 7
mph
1017.8mb 54f 56f
8:50am 4ft 9s 7s 7 9 mph 1018.1mb 53f 56f
7:50am 4.5ft 8s 7s 9
mph
1018.1mb 53f 56f
5:50am 4ft 9s 7s 7
mph
1018mb 53f 56f
4:50am 4ft 9s 7s 7 9 mph 1017.7mb 53f 55f
3:50am 4ft 9s 7s 4
mph
1018mb 53f 55f
2:50am 3.5ft 9s 6s 4
mph
1018.4mb 53f 55f
1:50am 3.5ft 9s 6s 4
mph
1019mb 53f 54f
12:50am 4ft 7s 6s 7
mph
1019.6mb 53f 54f
Tue 02/21 11:50pm 4ft 8s 6s 7 9 mph 1020.3mb 53f 54f
10:50pm 4.5ft 8s 6s 9 11 mph 1021mb 53f 53f
9:50pm 4.5ft 8s 5s 11 13 mph 1021.5mb 52f 53f
8:50pm 4.5ft 8s 5s 13 16 mph 1021.7mb 52f 53f
7:50pm 4.5ft 8s 5s 11 13 mph 1021.8mb 52f 53f
6:50pm 3.5ft 8s 5s 13 16 mph 1022.2mb 53f 53f
5:50pm 4ft 7s 5s 13 18 mph 1022.2mb 53f 52f
4:50pm 4ft 8s 5s 13 18 mph 1022.2mb 53f 52f
3:50pm 3.5ft 6s 5s 16 18 mph 1022.7mb 53f 52f
2:50pm 3.5ft 6s 5s 13 16 mph 1023.5mb 54f 51f
1:50pm 4ft 6s 5s 13 16 mph 1024mb 54f 51f
12:50pm 4ft 7s 5s 13 16 mph 1024.5mb 54f 51f
11:50am 4.5ft 7s 5s 16 18 mph 1025mb 54f 51f
10:50am 4.5ft 7s 5s 16 18 mph 1025.5mb 54f 51f
9:50am 4ft 7s 5s 16 20 mph 1025.8mb 54f 51f
8:50am 4ft 7s 5s 13 16 mph 1026.5mb 53f 51f
7:50am 4ft 6s 5s 13 18 mph 1026.3mb 53f 51f
6:50am 3.5ft 6s 4s 16 18 mph 1025.7mb 53f 51f
5:50am 3.5ft 6s 4s 18 22 mph 1024.9mb 53f 51f
4:50am 4ft 6s 4s 18 22 mph 1024.4mb 53f 52f
3:50am 3.5ft 6s 4s 18 22 mph 1024.3mb 53f 52f
2:50am 3.5ft 6s 4s 18 22 mph 1024.1mb 53f 52f
1:50am 3.5ft 6s 4s 18 20 mph 1024.5mb 53f 52f
12:50am 3.5ft 5s 4s 18 22 mph 1024.6mb 53f 53f
Mon 02/20 11:50pm 3.5ft 5s 4s 18 22 mph 1024.3mb 53f 53f
10:50pm 3ft 5s 4s 20 22 mph 1024mb 53f 53f
9:50pm 3ft 6s 4s 18 20 mph 1024.4mb 54f 53f
8:50pm 2.5ft 6s 4s 13 16 mph 1024.3mb 54f 52f
7:50pm 2.5ft 5s 4s 13 18 mph 1023.8mb 54f 52f
6:50pm 2.5ft 5s 4s 13 16 mph 1023.7mb 54f 52f
5:50pm 2.5ft 5s 4s 11 13 mph 1022.9mb 54f 52f
4:50pm 2.5ft 5s 4s 13 16 mph 1022.2mb 54f 52f
3:50pm 2.5ft 5s 4s 13 16 mph 1021.7mb 53f 52f
2:50pm 2.5ft 4s 4s 13 16 mph 1021.3mb 52f 52f
1:50pm 3ft 4s 4s 16 18 mph 1021.6mb 51f 51f
12:50pm 2.5ft 4s 4s 16 18 mph 1021.7mb 51f 51f
11:50am 2.5ft 5s 4s 11 13 mph 1022.2mb 51f 51f
10:50am 3ft 5s 4s 13 16 mph 1022.4mb 51f 52f
9:50am 3ft 4s 4s 16 18 mph 1021.4mb 51f 52f
8:50am 3ft 4s 4s 16 20 mph 1021.2mb 51f 52f
7:50am 2ft 3s 3s 16 20 mph 1020.6mb 51f 53f
6:50am 1.6ft 3s 3s 16 20 mph 1019.5mb 51f 52f